sensor_id;sensor_type;location;lat;lon;timestamp;temperature;humidity
66257;DHT22;53049;43.446;3.698;2023-12-07T00:01:53;3.80;99.90
66257;DHT22;53049;43.446;3.698;2023-12-07T00:04:18;3.80;99.90
66257;DHT22;53049;43.446;3.698;2023-12-07T00:06:44;3.70;99.90
66257;DHT22;53049;43.446;3.698;2023-12-07T00:09:09;3.70;99.90
66257;DHT22;53049;43.446;3.698;2023-12-07T00:11:35;3.60;99.90
66257;DHT22;53049;43.446;3.698;2023-12-07T00:14:01;3.50;99.90
66257;DHT22;53049;43.446;3.698;2023-12-07T00:16:27;3.50;99.90
66257;DHT22;53049;43.446;3.698;2023-12-07T00:18:53;3.70;99.90
66257;DHT22;53049;43.446;3.698;2023-12-07T00:21:18;3.80;99.90
66257;DHT22;53049;43.446;3.698;2023-12-07T00:23:44;3.90;99.90
66257;DHT22;53049;43.446;3.698;2023-12-07T00:26:10;4.10;99.90
66257;DHT22;53049;43.446;3.698;2023-12-07T00:28:36;4.30;99.90
66257;DHT22;53049;43.446;3.698;2023-12-07T00:31:02;4.30;99.90
66257;DHT22;53049;43.446;3.698;2023-12-07T00:33:27;4.40;99.90
66257;DHT22;53049;43.446;3.698;2023-12-07T00:35:53;4.40;99.90
66257;DHT22;53049;43.446;3.698;2023-12-07T00:38:19;4.40;99.90
66257;DHT22;53049;43.446;3.698;2023-12-07T00:40:46;4.40;99.90
66257;DHT22;53049;43.446;3.698;2023-12-07T00:43:12;4.50;99.90
66257;DHT22;53049;43.446;3.698;2023-12-07T00:45:38;4.50;99.90
66257;DHT22;53049;43.446;3.698;2023-12-07T00:48:04;4.50;99.90
66257;DHT22;53049;43.446;3.698;2023-12-07T00:50:30;4.50;99.90
66257;DHT22;53049;43.446;3.698;2023-12-07T00:52:56;4.50;99.90
66257;DHT22;53049;43.446;3.698;2023-12-07T00:55:21;4.50;99.90
66257;DHT22;53049;43.446;3.698;2023-12-07T00:57:47;4.50;99.90
66257;DHT22;53049;43.446;3.698;2023-12-07T01:00:13;4.50;99.90
66257;DHT22;53049;43.446;3.698;2023-12-07T01:02:39;4.50;99.90
66257;DHT22;53049;43.446;3.698;2023-12-07T01:05:05;4.50;99.90
66257;DHT22;53049;43.446;3.698;2023-12-07T01:07:31;4.50;99.90
66257;DHT22;53049;43.446;3.698;2023-12-07T01:09:57;4.40;99.90
66257;DHT22;53049;43.446;3.698;2023-12-07T01:12:22;4.60;99.90
66257;DHT22;53049;43.446;3.698;2023-12-07T01:14:48;4.70;99.90
66257;DHT22;53049;43.446;3.698;2023-12-07T01:17:14;4.90;99.90
66257;DHT22;53049;43.446;3.698;2023-12-07T01:19:39;4.90;99.90
66257;DHT22;53049;43.446;3.698;2023-12-07T01:22:05;4.90;99.90
66257;DHT22;53049;43.446;3.698;2023-12-07T01:24:31;5.10;99.90
66257;DHT22;53049;43.446;3.698;2023-12-07T01:26:56;5.00;99.90
66257;DHT22;53049;43.446;3.698;2023-12-07T01:29:22;5.00;99.90
66257;DHT22;53049;43.446;3.698;2023-12-07T01:31:48;4.90;99.90
66257;DHT22;53049;43.446;3.698;2023-12-07T01:34:14;4.90;99.90
66257;DHT22;53049;43.446;3.698;2023-12-07T01:36:40;4.90;99.90
66257;DHT22;53049;43.446;3.698;2023-12-07T01:39:05;4.90;99.90
66257;DHT22;53049;43.446;3.698;2023-12-07T01:41:31;4.80;99.90
66257;DHT22;53049;43.446;3.698;2023-12-07T01:43:57;4.70;99.90
66257;DHT22;53049;43.446;3.698;2023-12-07T01:46:23;4.40;99.90
66257;DHT22;53049;43.446;3.698;2023-12-07T01:48:49;4.20;99.90
66257;DHT22;53049;43.446;3.698;2023-12-07T01:51:15;4.10;99.90
66257;DHT22;53049;43.446;3.698;2023-12-07T01:53:42;4.10;99.90
66257;DHT22;53049;43.446;3.698;2023-12-07T01:56:08;4.00;99.90
66257;DHT22;53049;43.446;3.698;2023-12-07T01:58:35;3.90;99.90
66257;DHT22;53049;43.446;3.698;2023-12-07T02:01:02;3.80;99.90
66257;DHT22;53049;43.446;3.698;2023-12-07T02:03:30;3.60;99.90
66257;DHT22;53049;43.446;3.698;2023-12-07T02:05:58;3.60;99.90
66257;DHT22;53049;43.446;3.698;2023-12-07T02:08:24;3.50;99.90
66257;DHT22;53049;43.446;3.698;2023-12-07T02:10:50;3.50;99.90
66257;DHT22;53049;43.446;3.698;2023-12-07T02:13:16;3.70;99.90
66257;DHT22;53049;43.446;3.698;2023-12-07T02:15:43;3.90;99.90
66257;DHT22;53049;43.446;3.698;2023-12-07T02:21:22;4.00;99.90
66257;DHT22;53049;43.446;3.698;2023-12-07T02:23:51;4.00;99.90
66257;DHT22;53049;43.446;3.698;2023-12-07T02:26:22;4.10;99.90
66257;DHT22;53049;43.446;3.698;2023-12-07T02:28:49;4.10;99.90
66257;DHT22;53049;43.446;3.698;2023-12-07T02:31:15;4.10;99.90
66257;DHT22;53049;43.446;3.698;2023-12-07T02:33:41;3.90;99.90
66257;DHT22;53049;43.446;3.698;2023-12-07T02:36:07;3.90;99.90
66257;DHT22;53049;43.446;3.698;2023-12-07T02:38:33;3.90;99.90
66257;DHT22;53049;43.446;3.698;2023-12-07T02:41:01;3.90;99.90
66257;DHT22;53049;43.446;3.698;2023-12-07T02:43:27;3.80;99.90
66257;DHT22;53049;43.446;3.698;2023-12-07T02:45:53;3.80;99.90
66257;DHT22;53049;43.446;3.698;2023-12-07T02:48:20;3.80;99.90
66257;DHT22;53049;43.446;3.698;2023-12-07T02:50:46;3.80;99.90
66257;DHT22;53049;43.446;3.698;2023-12-07T02:53:12;3.80;99.90
66257;DHT22;53049;43.446;3.698;2023-12-07T02:55:38;3.80;99.90
66257;DHT22;53049;43.446;3.698;2023-12-07T02:58:04;3.70;99.90
66257;DHT22;53049;43.446;3.698;2023-12-07T03:00:29;3.70;99.90
66257;DHT22;53049;43.446;3.698;2023-12-07T03:02:55;3.50;99.90
66257;DHT22;53049;43.446;3.698;2023-12-07T03:05:21;3.50;99.90
66257;DHT22;53049;43.446;3.698;2023-12-07T03:07:48;3.50;99.90
66257;DHT22;53049;43.446;3.698;2023-12-07T03:10:14;3.30;99.90
66257;DHT22;53049;43.446;3.698;2023-12-07T03:12:39;3.10;99.90
66257;DHT22;53049;43.446;3.698;2023-12-07T03:15:05;3.00;99.90
66257;DHT22;53049;43.446;3.698;2023-12-07T03:17:31;3.00;99.90
66257;DHT22;53049;43.446;3.698;2023-12-07T03:19:57;3.00;99.90
66257;DHT22;53049;43.446;3.698;2023-12-07T03:22:23;2.90;99.90
66257;DHT22;53049;43.446;3.698;2023-12-07T03:24:51;2.80;99.90
66257;DHT22;53049;43.446;3.698;2023-12-07T03:27:18;2.80;99.90
66257;DHT22;53049;43.446;3.698;2023-12-07T03:29:43;2.80;99.90
66257;DHT22;53049;43.446;3.698;2023-12-07T03:32:09;2.80;99.90
66257;DHT22;53049;43.446;3.698;2023-12-07T03:34:35;2.90;99.90
66257;DHT22;53049;43.446;3.698;2023-12-07T03:37:00;3.00;99.90
66257;DHT22;53049;43.446;3.698;2023-12-07T03:39:26;3.20;99.90
66257;DHT22;53049;43.446;3.698;2023-12-07T03:41:52;3.40;99.90
66257;DHT22;53049;43.446;3.698;2023-12-07T03:44:18;3.50;99.90
66257;DHT22;53049;43.446;3.698;2023-12-07T03:46:44;3.70;99.90
66257;DHT22;53049;43.446;3.698;2023-12-07T03:49:10;3.90;99.90
66257;DHT22;53049;43.446;3.698;2023-12-07T03:51:35;4.10;99.90
66257;DHT22;53049;43.446;3.698;2023-12-07T03:54:03;4.30;99.90
66257;DHT22;53049;43.446;3.698;2023-12-07T03:56:30;4.40;99.90
66257;DHT22;53049;43.446;3.698;2023-12-07T03:58:56;4.40;99.90
66257;DHT22;53049;43.446;3.698;2023-12-07T04:01:26;4.50;99.90
66257;DHT22;53049;43.446;3.698;2023-12-07T04:03:55;4.40;99.90
66257;DHT22;53049;43.446;3.698;2023-12-07T04:06:22;4.30;99.90
66257;DHT22;53049;43.446;3.698;2023-12-07T04:08:47;4.30;99.90
66257;DHT22;53049;43.446;3.698;2023-12-07T04:11:14;4.30;99.90
66257;DHT22;53049;43.446;3.698;2023-12-07T04:13:40;4.10;99.90
66257;DHT22;53049;43.446;3.698;2023-12-07T04:16:07;3.80;99.90
66257;DHT22;53049;43.446;3.698;2023-12-07T04:18:33;3.60;99.90
66257;DHT22;53049;43.446;3.698;2023-12-07T04:20:59;3.30;99.90
66257;DHT22;53049;43.446;3.698;2023-12-07T04:23:25;3.10;99.90
66257;DHT22;53049;43.446;3.698;2023-12-07T04:25:50;3.00;99.90
66257;DHT22;53049;43.446;3.698;2023-12-07T04:28:16;3.10;99.90
66257;DHT22;53049;43.446;3.698;2023-12-07T04:30:42;3.20;99.90
66257;DHT22;53049;43.446;3.698;2023-12-07T04:33:08;3.20;99.90
66257;DHT22;53049;43.446;3.698;2023-12-07T04:35:34;3.30;99.90
66257;DHT22;53049;43.446;3.698;2023-12-07T04:38:00;3.30;99.90
66257;DHT22;53049;43.446;3.698;2023-12-07T04:40:26;3.30;99.90
66257;DHT22;53049;43.446;3.698;2023-12-07T04:42:52;3.30;99.90
66257;DHT22;53049;43.446;3.698;2023-12-07T04:45:17;3.30;99.90
66257;DHT22;53049;43.446;3.698;2023-12-07T04:47:43;3.10;99.90
66257;DHT22;53049;43.446;3.698;2023-12-07T04:50:09;3.10;99.90
66257;DHT22;53049;43.446;3.698;2023-12-07T04:52:35;3.10;99.90
66257;DHT22;53049;43.446;3.698;2023-12-07T04:55:01;3.10;99.90
66257;DHT22;53049;43.446;3.698;2023-12-07T04:57:27;3.10;99.90
66257;DHT22;53049;43.446;3.698;2023-12-07T04:59:53;3.00;99.90
66257;DHT22;53049;43.446;3.698;2023-12-07T05:02:19;2.90;99.90
66257;DHT22;53049;43.446;3.698;2023-12-07T05:04:45;2.80;99.90
66257;DHT22;53049;43.446;3.698;2023-12-07T05:07:14;2.80;99.90
66257;DHT22;53049;43.446;3.698;2023-12-07T05:09:40;2.80;99.90
66257;DHT22;53049;43.446;3.698;2023-12-07T05:12:08;2.60;99.90
66257;DHT22;53049;43.446;3.698;2023-12-07T05:14:34;2.50;99.90
66257;DHT22;53049;43.446;3.698;2023-12-07T05:17:03;2.40;99.90
66257;DHT22;53049;43.446;3.698;2023-12-07T05:19:28;2.40;99.90
66257;DHT22;53049;43.446;3.698;2023-12-07T05:21:54;2.40;99.90
66257;DHT22;53049;43.446;3.698;2023-12-07T05:24:20;2.50;99.90
66257;DHT22;53049;43.446;3.698;2023-12-07T05:26:46;2.50;99.90
66257;DHT22;53049;43.446;3.698;2023-12-07T05:29:13;2.60;99.90
66257;DHT22;53049;43.446;3.698;2023-12-07T05:31:39;2.60;99.90
66257;DHT22;53049;43.446;3.698;2023-12-07T05:34:05;2.60;99.90
66257;DHT22;53049;43.446;3.698;2023-12-07T05:36:31;2.60;99.90
66257;DHT22;53049;43.446;3.698;2023-12-07T05:38:57;2.60;99.90
66257;DHT22;53049;43.446;3.698;2023-12-07T05:41:23;2.60;99.90
66257;DHT22;53049;43.446;3.698;2023-12-07T05:43:49;2.60;99.90
66257;DHT22;53049;43.446;3.698;2023-12-07T05:46:16;2.50;99.90
66257;DHT22;53049;43.446;3.698;2023-12-07T05:48:42;2.60;99.90
66257;DHT22;53049;43.446;3.698;2023-12-07T05:51:17;2.60;99.90
66257;DHT22;53049;43.446;3.698;2023-12-07T05:53:43;2.60;99.90
66257;DHT22;53049;43.446;3.698;2023-12-07T05:56:10;2.70;99.90
66257;DHT22;53049;43.446;3.698;2023-12-07T05:58:36;2.70;99.90
66257;DHT22;53049;43.446;3.698;2023-12-07T06:01:02;2.70;99.90
66257;DHT22;53049;43.446;3.698;2023-12-07T06:03:28;2.80;99.90
66257;DHT22;53049;43.446;3.698;2023-12-07T06:05:54;2.80;99.90
66257;DHT22;53049;43.446;3.698;2023-12-07T06:08:21;2.90;99.90
66257;DHT22;53049;43.446;3.698;2023-12-07T06:10:47;2.90;99.90
66257;DHT22;53049;43.446;3.698;2023-12-07T06:13:13;2.90;99.90
66257;DHT22;53049;43.446;3.698;2023-12-07T06:15:39;2.80;99.90
66257;DHT22;53049;43.446;3.698;2023-12-07T06:18:05;2.70;99.90
66257;DHT22;53049;43.446;3.698;2023-12-07T06:20:31;2.60;99.90
66257;DHT22;53049;43.446;3.698;2023-12-07T06:22:57;2.70;99.90
66257;DHT22;53049;43.446;3.698;2023-12-07T06:25:23;2.70;99.90
66257;DHT22;53049;43.446;3.698;2023-12-07T06:27:49;2.60;99.90
66257;DHT22;53049;43.446;3.698;2023-12-07T06:30:15;2.50;99.90
66257;DHT22;53049;43.446;3.698;2023-12-07T06:32:43;2.60;99.90
66257;DHT22;53049;43.446;3.698;2023-12-07T06:35:11;2.60;99.90
66257;DHT22;53049;43.446;3.698;2023-12-07T06:37:37;2.60;99.90
66257;DHT22;53049;43.446;3.698;2023-12-07T06:40:03;2.60;99.90
66257;DHT22;53049;43.446;3.698;2023-12-07T06:42:30;2.70;99.90
66257;DHT22;53049;43.446;3.698;2023-12-07T06:44:55;2.70;99.90
66257;DHT22;53049;43.446;3.698;2023-12-07T06:47:21;2.70;99.90
66257;DHT22;53049;43.446;3.698;2023-12-07T06:49:47;2.80;99.90
66257;DHT22;53049;43.446;3.698;2023-12-07T06:52:12;2.90;99.90
66257;DHT22;53049;43.446;3.698;2023-12-07T06:54:38;2.90;99.90
66257;DHT22;53049;43.446;3.698;2023-12-07T06:57:05;2.80;99.90
66257;DHT22;53049;43.446;3.698;2023-12-07T06:59:33;2.70;99.90
66257;DHT22;53049;43.446;3.698;2023-12-07T07:01:59;2.40;99.90
66257;DHT22;53049;43.446;3.698;2023-12-07T07:04:25;2.40;99.90
66257;DHT22;53049;43.446;3.698;2023-12-07T07:06:51;2.40;99.90
66257;DHT22;53049;43.446;3.698;2023-12-07T07:09:17;2.30;99.90
66257;DHT22;53049;43.446;3.698;2023-12-07T07:11:47;2.20;99.90
66257;DHT22;53049;43.446;3.698;2023-12-07T07:14:13;2.20;99.90
66257;DHT22;53049;43.446;3.698;2023-12-07T07:16:39;2.10;99.90
66257;DHT22;53049;43.446;3.698;2023-12-07T07:19:05;2.20;99.90
66257;DHT22;53049;43.446;3.698;2023-12-07T07:21:31;2.20;99.90
66257;DHT22;53049;43.446;3.698;2023-12-07T07:23:57;2.20;99.90
66257;DHT22;53049;43.446;3.698;2023-12-07T07:26:23;2.30;99.90
66257;DHT22;53049;43.446;3.698;2023-12-07T07:28:51;2.30;99.90
66257;DHT22;53049;43.446;3.698;2023-12-07T07:31:17;2.40;99.90
66257;DHT22;53049;43.446;3.698;2023-12-07T07:33:43;2.50;99.90
66257;DHT22;53049;43.446;3.698;2023-12-07T07:36:09;2.60;99.90
66257;DHT22;53049;43.446;3.698;2023-12-07T07:38:37;2.50;99.90
66257;DHT22;53049;43.446;3.698;2023-12-07T07:41:03;2.50;99.90
66257;DHT22;53049;43.446;3.698;2023-12-07T07:43:29;2.50;99.90
66257;DHT22;53049;43.446;3.698;2023-12-07T07:45:55;2.70;99.90
66257;DHT22;53049;43.446;3.698;2023-12-07T07:48:21;2.70;99.90
66257;DHT22;53049;43.446;3.698;2023-12-07T07:50:47;2.70;99.90
66257;DHT22;53049;43.446;3.698;2023-12-07T07:53:13;2.80;99.90
66257;DHT22;53049;43.446;3.698;2023-12-07T07:55:38;2.90;99.90
66257;DHT22;53049;43.446;3.698;2023-12-07T07:58:04;2.90;99.90
66257;DHT22;53049;43.446;3.698;2023-12-07T08:00:30;2.90;99.90
66257;DHT22;53049;43.446;3.698;2023-12-07T08:02:58;3.00;99.90
66257;DHT22;53049;43.446;3.698;2023-12-07T08:05:23;3.00;99.90
66257;DHT22;53049;43.446;3.698;2023-12-07T08:07:50;3.10;99.90
66257;DHT22;53049;43.446;3.698;2023-12-07T08:10:15;3.20;99.90
66257;DHT22;53049;43.446;3.698;2023-12-07T08:12:41;3.40;99.90
66257;DHT22;53049;43.446;3.698;2023-12-07T08:15:07;3.50;99.90
66257;DHT22;53049;43.446;3.698;2023-12-07T08:17:40;3.70;99.90
66257;DHT22;53049;43.446;3.698;2023-12-07T08:20:10;3.90;99.90
66257;DHT22;53049;43.446;3.698;2023-12-07T08:22:37;4.00;99.90
66257;DHT22;53049;43.446;3.698;2023-12-07T08:25:03;4.10;99.90
66257;DHT22;53049;43.446;3.698;2023-12-07T08:27:32;4.20;99.90
66257;DHT22;53049;43.446;3.698;2023-12-07T08:29:58;4.30;99.90
66257;DHT22;53049;43.446;3.698;2023-12-07T08:32:23;4.40;99.90
66257;DHT22;53049;43.446;3.698;2023-12-07T08:34:51;4.40;99.90
66257;DHT22;53049;43.446;3.698;2023-12-07T08:37:17;4.40;99.90
66257;DHT22;53049;43.446;3.698;2023-12-07T08:39:43;4.50;99.90
66257;DHT22;53049;43.446;3.698;2023-12-07T08:42:09;4.60;99.90
66257;DHT22;53049;43.446;3.698;2023-12-07T08:44:34;4.60;99.90
66257;DHT22;53049;43.446;3.698;2023-12-07T08:47:00;4.60;99.90
66257;DHT22;53049;43.446;3.698;2023-12-07T08:49:26;4.70;99.90
66257;DHT22;53049;43.446;3.698;2023-12-07T08:51:52;4.70;99.90
66257;DHT22;53049;43.446;3.698;2023-12-07T08:54:18;4.90;99.90
66257;DHT22;53049;43.446;3.698;2023-12-07T08:56:45;4.90;99.90
66257;DHT22;53049;43.446;3.698;2023-12-07T08:59:11;4.90;99.90
66257;DHT22;53049;43.446;3.698;2023-12-07T09:01:36;4.90;99.90
66257;DHT22;53049;43.446;3.698;2023-12-07T09:04:02;5.00;99.90
66257;DHT22;53049;43.446;3.698;2023-12-07T09:06:28;5.10;99.90
66257;DHT22;53049;43.446;3.698;2023-12-07T09:08:54;5.10;99.90
66257;DHT22;53049;43.446;3.698;2023-12-07T09:11:20;5.20;99.90
66257;DHT22;53049;43.446;3.698;2023-12-07T09:13:46;5.30;99.90
66257;DHT22;53049;43.446;3.698;2023-12-07T09:16:12;5.40;99.90
66257;DHT22;53049;43.446;3.698;2023-12-07T09:18:38;5.50;99.90
66257;DHT22;53049;43.446;3.698;2023-12-07T09:21:04;5.60;99.90
66257;DHT22;53049;43.446;3.698;2023-12-07T09:23:30;5.70;99.90
66257;DHT22;53049;43.446;3.698;2023-12-07T09:25:56;5.80;99.90
66257;DHT22;53049;43.446;3.698;2023-12-07T09:28:22;5.90;99.90
66257;DHT22;53049;43.446;3.698;2023-12-07T09:30:48;6.00;99.90
66257;DHT22;53049;43.446;3.698;2023-12-07T09:33:13;6.10;99.90
66257;DHT22;53049;43.446;3.698;2023-12-07T09:35:39;6.10;99.90
66257;DHT22;53049;43.446;3.698;2023-12-07T09:38:05;6.20;99.90
66257;DHT22;53049;43.446;3.698;2023-12-07T09:40:32;6.30;99.90
66257;DHT22;53049;43.446;3.698;2023-12-07T09:42:58;6.40;99.90
66257;DHT22;53049;43.446;3.698;2023-12-07T09:45:24;6.40;99.90
66257;DHT22;53049;43.446;3.698;2023-12-07T09:47:52;6.40;99.90
66257;DHT22;53049;43.446;3.698;2023-12-07T09:50:22;6.50;99.90
66257;DHT22;53049;43.446;3.698;2023-12-07T09:52:49;6.50;99.90
66257;DHT22;53049;43.446;3.698;2023-12-07T09:55:17;6.60;99.90
66257;DHT22;53049;43.446;3.698;2023-12-07T09:57:43;6.70;99.90
66257;DHT22;53049;43.446;3.698;2023-12-07T10:00:11;6.70;99.90
66257;DHT22;53049;43.446;3.698;2023-12-07T10:02:40;6.70;99.90
66257;DHT22;53049;43.446;3.698;2023-12-07T10:05:11;6.70;99.90
66257;DHT22;53049;43.446;3.698;2023-12-07T10:07:40;6.70;99.90
66257;DHT22;53049;43.446;3.698;2023-12-07T10:10:08;6.70;99.90
66257;DHT22;53049;43.446;3.698;2023-12-07T10:12:47;6.70;99.90
66257;DHT22;53049;43.446;3.698;2023-12-07T10:15:15;6.80;99.90
66257;DHT22;53049;43.446;3.698;2023-12-07T10:17:57;6.80;99.90
66257;DHT22;53049;43.446;3.698;2023-12-07T10:20:27;6.90;99.90
66257;DHT22;53049;43.446;3.698;2023-12-07T10:23:02;6.90;99.90
66257;DHT22;53049;43.446;3.698;2023-12-07T10:25:30;7.00;99.90
66257;DHT22;53049;43.446;3.698;2023-12-07T10:27:56;7.00;99.90
66257;DHT22;53049;43.446;3.698;2023-12-07T10:30:22;7.10;99.90
66257;DHT22;53049;43.446;3.698;2023-12-07T10:32:51;7.10;99.90
66257;DHT22;53049;43.446;3.698;2023-12-07T10:35:18;7.20;99.90
66257;DHT22;53049;43.446;3.698;2023-12-07T10:37:45;7.20;99.90
66257;DHT22;53049;43.446;3.698;2023-12-07T10:40:12;7.30;99.90
66257;DHT22;53049;43.446;3.698;2023-12-07T10:42:41;7.30;99.90
66257;DHT22;53049;43.446;3.698;2023-12-07T10:45:07;7.40;99.90
66257;DHT22;53049;43.446;3.698;2023-12-07T10:47:38;7.40;99.90
66257;DHT22;53049;43.446;3.698;2023-12-07T10:50:07;7.40;99.90
66257;DHT22;53049;43.446;3.698;2023-12-07T10:52:54;7.40;99.90
66257;DHT22;53049;43.446;3.698;2023-12-07T10:55:27;7.40;99.90
66257;DHT22;53049;43.446;3.698;2023-12-07T10:57:55;7.40;99.90
66257;DHT22;53049;43.446;3.698;2023-12-07T11:00:21;7.50;99.90
66257;DHT22;53049;43.446;3.698;2023-12-07T11:02:52;7.50;99.90
66257;DHT22;53049;43.446;3.698;2023-12-07T11:05:17;7.50;99.90
66257;DHT22;53049;43.446;3.698;2023-12-07T11:08:00;7.50;99.90
66257;DHT22;53049;43.446;3.698;2023-12-07T11:10:32;7.60;99.90
66257;DHT22;53049;43.446;3.698;2023-12-07T11:13:11;7.70;99.90
66257;DHT22;53049;43.446;3.698;2023-12-07T11:15:39;7.70;99.90
66257;DHT22;53049;43.446;3.698;2023-12-07T11:18:05;7.80;99.90
66257;DHT22;53049;43.446;3.698;2023-12-07T11:20:42;7.90;99.90
66257;DHT22;53049;43.446;3.698;2023-12-07T11:23:10;7.90;99.90
66257;DHT22;53049;43.446;3.698;2023-12-07T11:25:37;8.00;99.90
66257;DHT22;53049;43.446;3.698;2023-12-07T11:28:04;7.90;99.90
66257;DHT22;53049;43.446;3.698;2023-12-07T11:30:35;8.00;99.90
66257;DHT22;53049;43.446;3.698;2023-12-07T11:33:05;8.10;99.90
66257;DHT22;53049;43.446;3.698;2023-12-07T11:35:31;8.20;99.90
66257;DHT22;53049;43.446;3.698;2023-12-07T11:38:08;8.30;99.90
66257;DHT22;53049;43.446;3.698;2023-12-07T11:40:51;8.40;99.90
66257;DHT22;53049;43.446;3.698;2023-12-07T11:43:18;8.60;99.90
66257;DHT22;53049;43.446;3.698;2023-12-07T11:45:48;8.70;99.90
66257;DHT22;53049;43.446;3.698;2023-12-07T11:48:15;8.70;99.90
66257;DHT22;53049;43.446;3.698;2023-12-07T11:50:56;8.80;99.90
66257;DHT22;53049;43.446;3.698;2023-12-07T11:53:32;8.90;99.90
66257;DHT22;53049;43.446;3.698;2023-12-07T11:56:03;8.90;99.90
66257;DHT22;53049;43.446;3.698;2023-12-07T11:58:30;8.90;99.90
66257;DHT22;53049;43.446;3.698;2023-12-07T12:00:57;9.00;99.90
66257;DHT22;53049;43.446;3.698;2023-12-07T12:03:24;9.00;99.90
66257;DHT22;53049;43.446;3.698;2023-12-07T12:05:50;9.10;99.90
66257;DHT22;53049;43.446;3.698;2023-12-07T12:08:19;9.10;99.90
66257;DHT22;53049;43.446;3.698;2023-12-07T12:10:45;9.10;99.90
66257;DHT22;53049;43.446;3.698;2023-12-07T12:13:12;9.10;99.90
66257;DHT22;53049;43.446;3.698;2023-12-07T12:15:39;9.20;99.90
66257;DHT22;53049;43.446;3.698;2023-12-07T12:18:08;9.20;99.90
66257;DHT22;53049;43.446;3.698;2023-12-07T12:20:34;9.10;99.90
66257;DHT22;53049;43.446;3.698;2023-12-07T12:23:00;9.20;99.90
66257;DHT22;53049;43.446;3.698;2023-12-07T12:25:27;9.10;99.90
66257;DHT22;53049;43.446;3.698;2023-12-07T12:27:57;9.10;99.90
66257;DHT22;53049;43.446;3.698;2023-12-07T12:30:23;9.10;99.90
66257;DHT22;53049;43.446;3.698;2023-12-07T12:32:50;9.10;99.90
66257;DHT22;53049;43.446;3.698;2023-12-07T12:35:16;9.10;99.90
66257;DHT22;53049;43.446;3.698;2023-12-07T12:37:43;9.20;99.90
66257;DHT22;53049;43.446;3.698;2023-12-07T12:40:18;9.20;99.90
66257;DHT22;53049;43.446;3.698;2023-12-07T12:42:49;9.30;99.90
66257;DHT22;53049;43.446;3.698;2023-12-07T12:45:16;9.30;99.90
66257;DHT22;53049;43.446;3.698;2023-12-07T12:47:44;9.40;99.90
66257;DHT22;53049;43.446;3.698;2023-12-07T12:53:09;9.50;99.90
66257;DHT22;53049;43.446;3.698;2023-12-07T12:55:40;9.50;99.90
66257;DHT22;53049;43.446;3.698;2023-12-07T12:58:07;9.60;99.90
66257;DHT22;53049;43.446;3.698;2023-12-07T13:00:34;9.60;99.90
66257;DHT22;53049;43.446;3.698;2023-12-07T13:03:05;9.70;99.90
66257;DHT22;53049;43.446;3.698;2023-12-07T13:05:31;9.70;99.90
66257;DHT22;53049;43.446;3.698;2023-12-07T13:08:01;9.70;99.90
66257;DHT22;53049;43.446;3.698;2023-12-07T13:10:27;9.70;99.90
66257;DHT22;53049;43.446;3.698;2023-12-07T13:12:53;9.70;99.90
66257;DHT22;53049;43.446;3.698;2023-12-07T13:15:18;9.70;99.90
66257;DHT22;53049;43.446;3.698;2023-12-07T13:17:44;9.60;99.90
66257;DHT22;53049;43.446;3.698;2023-12-07T13:20:11;9.60;99.90
66257;DHT22;53049;43.446;3.698;2023-12-07T13:22:39;9.60;99.90
66257;DHT22;53049;43.446;3.698;2023-12-07T13:25:06;9.60;99.90
66257;DHT22;53049;43.446;3.698;2023-12-07T13:27:35;9.60;99.90
66257;DHT22;53049;43.446;3.698;2023-12-07T13:30:03;9.60;99.90
66257;DHT22;53049;43.446;3.698;2023-12-07T13:32:35;9.60;99.90
66257;DHT22;53049;43.446;3.698;2023-12-07T13:35:03;9.60;99.90
66257;DHT22;53049;43.446;3.698;2023-12-07T13:37:29;9.70;99.90
66257;DHT22;53049;43.446;3.698;2023-12-07T13:39:54;9.60;99.90
66257;DHT22;53049;43.446;3.698;2023-12-07T13:42:24;9.70;99.90
66257;DHT22;53049;43.446;3.698;2023-12-07T13:44:53;9.70;99.90
66257;DHT22;53049;43.446;3.698;2023-12-07T13:47:19;9.70;99.90
66257;DHT22;53049;43.446;3.698;2023-12-07T13:49:47;9.80;99.90
66257;DHT22;53049;43.446;3.698;2023-12-07T13:52:14;9.80;99.90
66257;DHT22;53049;43.446;3.698;2023-12-07T13:54:41;9.70;99.90
66257;DHT22;53049;43.446;3.698;2023-12-07T13:57:07;9.70;99.90
66257;DHT22;53049;43.446;3.698;2023-12-07T13:59:33;9.70;99.90
66257;DHT22;53049;43.446;3.698;2023-12-07T14:01:58;9.80;99.90
66257;DHT22;53049;43.446;3.698;2023-12-07T14:04:24;9.80;99.90
66257;DHT22;53049;43.446;3.698;2023-12-07T14:06:50;9.80;99.90
66257;DHT22;53049;43.446;3.698;2023-12-07T14:09:16;9.70;99.90
66257;DHT22;53049;43.446;3.698;2023-12-07T14:11:43;9.70;99.90
66257;DHT22;53049;43.446;3.698;2023-12-07T14:14:09;9.70;99.90
66257;DHT22;53049;43.446;3.698;2023-12-07T14:16:35;9.70;99.90
66257;DHT22;53049;43.446;3.698;2023-12-07T14:19:00;9.70;99.90
66257;DHT22;53049;43.446;3.698;2023-12-07T14:21:26;9.60;99.90
66257;DHT22;53049;43.446;3.698;2023-12-07T14:23:51;9.60;99.90
66257;DHT22;53049;43.446;3.698;2023-12-07T14:26:19;9.60;99.90
66257;DHT22;53049;43.446;3.698;2023-12-07T14:28:45;9.60;99.90
66257;DHT22;53049;43.446;3.698;2023-12-07T14:31:10;9.60;99.90
66257;DHT22;53049;43.446;3.698;2023-12-07T14:33:42;9.60;99.90
66257;DHT22;53049;43.446;3.698;2023-12-07T14:36:09;9.60;99.90
66257;DHT22;53049;43.446;3.698;2023-12-07T14:38:35;9.60;99.90
66257;DHT22;53049;43.446;3.698;2023-12-07T14:41:01;9.60;99.90
66257;DHT22;53049;43.446;3.698;2023-12-07T14:43:27;9.60;99.90
66257;DHT22;53049;43.446;3.698;2023-12-07T14:45:52;9.60;99.90
66257;DHT22;53049;43.446;3.698;2023-12-07T14:48:18;9.60;99.90
66257;DHT22;53049;43.446;3.698;2023-12-07T14:50:44;9.50;99.90
66257;DHT22;53049;43.446;3.698;2023-12-07T14:53:09;9.50;99.90
66257;DHT22;53049;43.446;3.698;2023-12-07T14:55:36;9.50;99.90
66257;DHT22;53049;43.446;3.698;2023-12-07T14:58:01;9.50;99.90
66257;DHT22;53049;43.446;3.698;2023-12-07T15:00:27;9.40;99.90
66257;DHT22;53049;43.446;3.698;2023-12-07T15:02:54;9.40;99.90
66257;DHT22;53049;43.446;3.698;2023-12-07T15:05:19;9.30;99.90
66257;DHT22;53049;43.446;3.698;2023-12-07T15:07:45;9.30;99.90
66257;DHT22;53049;43.446;3.698;2023-12-07T15:10:11;9.30;99.90
66257;DHT22;53049;43.446;3.698;2023-12-07T15:12:36;9.30;99.90
66257;DHT22;53049;43.446;3.698;2023-12-07T15:15:02;9.30;99.90
66257;DHT22;53049;43.446;3.698;2023-12-07T15:17:31;9.20;99.90
66257;DHT22;53049;43.446;3.698;2023-12-07T15:19:57;9.20;99.90
66257;DHT22;53049;43.446;3.698;2023-12-07T15:22:23;9.20;99.90
66257;DHT22;53049;43.446;3.698;2023-12-07T15:24:48;9.20;99.90
66257;DHT22;53049;43.446;3.698;2023-12-07T15:27:14;9.20;99.90
66257;DHT22;53049;43.446;3.698;2023-12-07T15:29:40;9.20;99.90
66257;DHT22;53049;43.446;3.698;2023-12-07T15:32:06;9.20;99.90
66257;DHT22;53049;43.446;3.698;2023-12-07T15:34:32;9.10;99.90
66257;DHT22;53049;43.446;3.698;2023-12-07T15:36:58;9.10;99.90
66257;DHT22;53049;43.446;3.698;2023-12-07T15:39:24;9.10;99.90
66257;DHT22;53049;43.446;3.698;2023-12-07T15:41:49;9.10;99.90
66257;DHT22;53049;43.446;3.698;2023-12-07T15:44:15;9.10;99.90
66257;DHT22;53049;43.446;3.698;2023-12-07T15:46:41;9.10;99.90
66257;DHT22;53049;43.446;3.698;2023-12-07T15:49:06;9.10;99.90